createdAt,value
2019-03-23T00:01:45.757Z,164.70
2019-03-23T00:04:15.872Z,163.17
2019-03-23T00:06:45.941Z,167.73
2019-03-23T00:09:16.186Z,167.63
2019-03-23T00:11:46.179Z,159.50
2019-03-23T00:14:16.390Z,174.23
2019-03-23T00:16:46.628Z,161.83
2019-03-23T00:19:16.567Z,170.77
2019-03-23T00:21:46.696Z,158.67
2019-03-23T00:24:16.701Z,168.70
2019-03-23T00:26:46.759Z,154.37
2019-03-23T00:29:16.768Z,161.73
2019-03-23T00:31:46.981Z,155.97
2019-03-23T00:34:17.153Z,155.53
2019-03-23T00:36:47.202Z,165.57
2019-03-23T00:39:17.297Z,155.13
2019-03-23T00:41:47.462Z,165.53
2019-03-23T00:44:17.771Z,168.07
2019-03-23T00:46:47.939Z,171.17
2019-03-23T00:49:18.006Z,173.07
2019-03-23T00:51:48.206Z,158.57
2019-03-23T00:54:18.255Z,172.53
2019-03-23T00:56:48.327Z,202.10
2019-03-23T00:59:18.621Z,215.80
2019-03-23T01:01:48.810Z,212.07
2019-03-23T01:04:18.882Z,204.00
2019-03-23T01:06:52.421Z,219.17
2019-03-23T01:09:20.748Z,201.33
2019-03-23T01:11:50.634Z,215.63
2019-03-23T01:14:20.583Z,215.03
2019-03-23T01:16:50.739Z,194.63
2019-03-23T01:19:20.840Z,194.37
2019-03-23T01:21:50.834Z,190.53
2019-03-23T01:24:20.929Z,195.40
2019-03-23T01:26:51.043Z,208.03
2019-03-23T01:29:20.998Z,201.37
2019-03-23T01:31:50.985Z,212.87
2019-03-23T01:34:21.126Z,200.47
2019-03-23T01:36:50.960Z,188.90
2019-03-23T01:39:20.839Z,214.03
2019-03-23T01:41:51.018Z,193.37
2019-03-23T01:44:21.021Z,219.30
2019-03-23T01:46:51.104Z,235.63
2019-03-23T01:49:21.357Z,212.33
2019-03-23T01:51:51.774Z,324.03
2019-03-23T01:54:22.269Z,244.73
2019-03-23T01:56:52.215Z,259.13
2019-03-23T01:59:22.455Z,198.17
2019-03-23T02:01:52.269Z,239.03
2019-03-23T02:04:22.373Z,197.57
2019-03-23T02:06:52.673Z,216.27
2019-03-23T02:09:22.757Z,195.70
2019-03-23T02:11:54.149Z,181.30
2019-03-23T02:14:24.426Z,171.20
2019-03-23T02:16:54.513Z,175.77
2019-03-23T02:19:24.639Z,156.80
2019-03-23T02:21:54.588Z,154.13
2019-03-23T02:24:24.478Z,152.63
2019-03-23T02:26:54.538Z,156.57
2019-03-23T02:29:26.557Z,160.73
2019-03-23T02:31:56.822Z,162.23
2019-03-23T02:34:26.862Z,150.13
2019-03-23T02:36:57.013Z,176.50
2019-03-23T02:39:27.019Z,171.50
2019-03-23T02:41:57.075Z,163.73
2019-03-23T02:44:27.167Z,160.50
2019-03-23T02:46:57.317Z,151.83
2019-03-23T02:49:27.346Z,158.33
2019-03-23T02:51:57.508Z,150.73
2019-03-23T02:54:27.798Z,158.77
2019-03-23T02:56:57.786Z,152.97
2019-03-23T02:59:27.824Z,148.40
2019-03-23T03:01:57.700Z,155.37
2019-03-23T03:04:27.773Z,145.10
2019-03-23T03:06:57.903Z,134.80
2019-03-23T03:09:28.019Z,144.10
2019-03-23T03:11:57.879Z,133.50
2019-03-23T03:14:27.960Z,145.13
2019-03-23T03:16:57.999Z,147.10
2019-03-23T03:19:28.026Z,136.03
2019-03-23T03:21:57.970Z,138.57
2019-03-23T03:24:27.980Z,150.10
2019-03-23T03:26:58.036Z,144.50
2019-03-23T03:29:28.050Z,139.63
2019-03-23T03:31:58.051Z,141.93
2019-03-23T03:34:28.288Z,136.77
2019-03-23T03:36:58.419Z,143.63
2019-03-23T03:39:28.652Z,141.70
2019-03-23T03:41:58.543Z,137.00
2019-03-23T03:44:28.542Z,147.53
2019-03-23T03:46:58.556Z,150.83
2019-03-23T03:49:28.544Z,169.57
2019-03-23T03:51:58.532Z,153.83
2019-03-23T03:54:30.061Z,162.07
2019-03-23T03:57:00.099Z,149.83
2019-03-23T03:59:30.188Z,138.83
2019-03-23T04:02:00.356Z,140.73
2019-03-23T04:04:30.483Z,137.67
2019-03-23T04:07:00.540Z,144.63
2019-03-23T04:09:30.659Z,158.17
2019-03-23T04:12:00.621Z,150.43
2019-03-23T04:14:30.492Z,158.70
2019-03-23T04:17:00.545Z,158.70
2019-03-23T04:19:30.657Z,142.27
2019-03-23T04:22:00.868Z,147.67
2019-03-23T04:24:30.953Z,146.40
2019-03-23T04:27:02.648Z,160.83
2019-03-23T04:29:32.908Z,161.77
2019-03-23T04:32:03.010Z,167.77
2019-03-23T04:34:33.105Z,176.07
2019-03-23T04:37:05.716Z,167.57
2019-03-23T04:39:35.395Z,164.00
2019-03-23T04:42:05.479Z,163.00
2019-03-23T04:44:35.626Z,163.23
2019-03-23T04:47:05.685Z,188.33
2019-03-23T04:49:35.958Z,185.30
2019-03-23T04:52:06.243Z,180.97
2019-03-23T04:54:36.386Z,183.53
2019-03-23T04:57:06.445Z,186.87
2019-03-23T04:59:36.628Z,176.27
2019-03-23T05:02:06.923Z,175.43
2019-03-23T05:04:37.265Z,179.37
2019-03-23T05:07:07.365Z,178.23
2019-03-23T05:09:37.494Z,188.47
2019-03-23T05:12:07.779Z,180.37
2019-03-23T05:14:37.769Z,180.30
2019-03-23T05:17:07.762Z,176.73
2019-03-23T05:19:39.131Z,167.77
2019-03-23T05:22:09.613Z,174.27
2019-03-23T05:24:39.769Z,173.57
2019-03-23T05:27:09.633Z,167.63
2019-03-23T05:29:39.680Z,162.60
2019-03-23T05:32:09.574Z,160.40
2019-03-23T05:34:39.603Z,165.33
2019-03-23T05:37:09.572Z,159.90
2019-03-23T05:39:39.605Z,164.43
2019-03-23T05:42:09.839Z,165.10
2019-03-23T05:44:40.060Z,171.13
2019-03-23T05:47:10.345Z,159.37
2019-03-23T05:49:40.468Z,168.37
2019-03-23T05:52:10.642Z,162.07
2019-03-23T05:54:40.846Z,166.73
2019-03-23T05:57:10.917Z,153.33
2019-03-23T05:59:40.928Z,163.60
2019-03-23T06:02:11.088Z,147.27
2019-03-23T06:04:40.994Z,163.03
2019-03-23T06:07:10.938Z,143.57
2019-03-23T06:09:40.812Z,146.17
2019-03-23T06:12:11.022Z,157.87
2019-03-23T06:14:41.475Z,155.43
2019-03-23T06:17:11.595Z,134.63
2019-03-23T06:19:41.789Z,149.97
2019-03-23T06:22:11.912Z,155.27
2019-03-23T06:24:42.284Z,150.57
2019-03-23T06:27:12.513Z,142.57
2019-03-23T06:29:42.539Z,159.73
2019-03-23T06:32:12.757Z,148.80
2019-03-23T06:34:42.877Z,141.43
2019-03-23T06:37:12.917Z,145.40
2019-03-23T06:39:43.252Z,139.57
2019-03-23T06:42:13.392Z,151.60
2019-03-23T06:44:43.701Z,145.87
2019-03-23T06:47:13.933Z,152.20
2019-03-23T06:49:44.177Z,140.03
2019-03-23T06:52:14.277Z,147.37
2019-03-23T06:54:44.399Z,149.17
2019-03-23T06:57:14.637Z,153.43
2019-03-23T06:59:44.791Z,150.73
2019-03-23T07:02:15.155Z,150.27
2019-03-23T07:04:45.402Z,148.33
2019-03-23T07:07:15.627Z,149.77
2019-03-23T07:09:45.902Z,152.40
2019-03-23T07:12:16.198Z,129.87
2019-03-23T07:14:46.430Z,148.30
2019-03-23T07:17:16.839Z,130.43
2019-03-23T07:19:47.001Z,144.50
2019-03-23T07:22:17.118Z,143.90
2019-03-23T07:24:47.358Z,146.27
2019-03-23T07:27:17.229Z,160.20
2019-03-23T07:29:47.636Z,145.70
2019-03-23T07:32:17.713Z,134.80
2019-03-23T07:34:48.069Z,139.40
2019-03-23T07:37:18.165Z,128.77
2019-03-23T07:39:48.081Z,135.87
2019-03-23T07:42:18.173Z,132.63
2019-03-23T07:44:48.198Z,140.27
2019-03-23T07:47:18.450Z,133.07
2019-03-23T07:49:48.586Z,133.87
2019-03-23T07:52:18.719Z,148.53
2019-03-23T07:54:48.631Z,137.53
2019-03-23T07:57:18.612Z,127.33
2019-03-23T07:59:48.721Z,123.60
2019-03-23T08:02:18.901Z,136.53
2019-03-23T08:04:49.065Z,127.47
2019-03-23T08:07:19.405Z,145.30
2019-03-23T08:09:49.510Z,128.43
2019-03-23T08:12:19.909Z,130.07
2019-03-23T08:14:49.871Z,130.67
2019-03-23T08:17:19.882Z,120.30
2019-03-23T08:19:49.871Z,130.90
2019-03-23T08:22:19.909Z,123.30
2019-03-23T08:24:49.882Z,119.87
2019-03-23T08:27:19.804Z,127.77
2019-03-23T08:29:49.614Z,132.93
2019-03-23T08:32:19.677Z,121.63
2019-03-23T08:34:49.652Z,120.10
2019-03-23T08:37:19.688Z,128.27
2019-03-23T08:39:49.737Z,127.17
2019-03-23T08:42:19.769Z,137.93
2019-03-23T08:44:49.720Z,138.23
2019-03-23T08:47:19.616Z,128.60
2019-03-23T08:49:49.693Z,123.60
2019-03-23T08:52:19.814Z,119.27
2019-03-23T08:54:49.984Z,131.47
2019-03-23T08:57:19.951Z,121.77
2019-03-23T08:59:49.913Z,126.70
2019-03-23T09:02:21.725Z,113.87
2019-03-23T09:04:51.373Z,124.40
2019-03-23T09:07:21.283Z,118.07
2019-03-23T09:09:58.789Z,119.77
2019-03-23T09:12:22.687Z,123.23
2019-03-23T09:14:52.719Z,126.03
2019-03-23T09:17:22.629Z,118.43
2019-03-23T09:19:52.567Z,114.87
2019-03-23T09:22:22.598Z,110.23
2019-03-23T09:24:57.108Z,104.83
2019-03-23T09:27:24.221Z,120.10
2019-03-23T09:29:54.157Z,95.97
2019-03-23T09:32:26.256Z,105.33
2019-03-23T09:34:56.138Z,97.20
2019-03-23T09:37:26.168Z,94.77
2019-03-23T09:39:58.619Z,85.87
2019-03-23T09:42:29.653Z,94.80
2019-03-23T09:44:59.545Z,92.43
2019-03-23T09:47:29.514Z,89.20
2019-03-23T09:49:59.571Z,94.60
2019-03-23T09:52:29.680Z,92.87
2019-03-23T09:54:59.812Z,89.93
2019-03-23T09:57:31.762Z,86.17
2019-03-23T10:00:02.417Z,84.60
2019-03-23T10:02:32.836Z,83.10
2019-03-23T10:05:02.843Z,72.70
2019-03-23T10:07:32.781Z,81.47
2019-03-23T10:10:03.037Z,71.67
2019-03-23T10:12:33.114Z,82.83
2019-03-23T10:15:04.027Z,72.33
2019-03-23T10:17:34.384Z,68.67
2019-03-23T10:20:06.340Z,62.77
2019-03-23T10:22:36.351Z,65.00
2019-03-23T10:25:07.124Z,63.10
2019-03-23T10:27:37.399Z,65.43
2019-03-23T10:30:09.289Z,63.00
2019-03-23T10:32:39.460Z,63.83
2019-03-23T10:35:10.066Z,64.83
2019-03-23T10:37:40.140Z,60.60
2019-03-23T10:40:11.699Z,62.70
2019-03-23T10:42:43.335Z,63.97
2019-03-23T10:45:13.912Z,60.13
2019-03-23T10:47:44.217Z,57.00
2019-03-23T10:50:14.441Z,56.70
2019-03-23T10:52:44.548Z,54.87
2019-03-23T10:55:14.451Z,46.50
2019-03-23T10:57:44.521Z,53.23
2019-03-23T11:00:16.006Z,51.37
2019-03-23T11:02:46.110Z,44.33
2019-03-23T11:05:16.138Z,45.43
2019-03-23T11:07:46.332Z,45.07
2019-03-23T11:10:16.530Z,46.47
2019-03-23T11:12:46.894Z,38.60
2019-03-23T11:15:16.857Z,43.30
2019-03-23T11:17:46.961Z,45.40
2019-03-23T11:20:17.128Z,38.13
2019-03-23T11:22:47.464Z,36.37
2019-03-23T11:25:17.484Z,36.30
2019-03-23T11:27:47.634Z,28.30
2019-03-23T11:30:17.894Z,41.07
2019-03-23T11:32:48.189Z,36.87
2019-03-23T11:35:18.542Z,40.83
2019-03-23T11:37:48.952Z,38.23
2019-03-23T11:40:19.240Z,33.17
2019-03-23T11:42:50.498Z,35.87
2019-03-23T11:45:20.842Z,30.50
2019-03-23T11:47:52.184Z,22.87
2019-03-23T11:50:22.454Z,25.27
2019-03-23T11:52:52.428Z,28.37
2019-03-23T11:55:22.601Z,31.60
2019-03-23T11:57:52.796Z,29.93
2019-03-23T12:00:23.156Z,30.03
2019-03-23T12:02:53.557Z,23.57
2019-03-23T12:05:23.473Z,24.20
2019-03-23T12:07:53.608Z,18.90
2019-03-23T12:10:23.745Z,24.93
2019-03-23T12:12:53.733Z,18.20
2019-03-23T12:15:24.018Z,22.27
2019-03-23T12:17:53.907Z,22.13
2019-03-23T12:20:24.066Z,21.77
2019-03-23T12:22:53.904Z,22.40
2019-03-23T12:25:24.123Z,22.83
2019-03-23T12:27:54.150Z,17.17
2019-03-23T12:30:24.252Z,17.20
2019-03-23T12:32:54.145Z,15.10
2019-03-23T12:35:23.996Z,18.27
2019-03-23T12:37:54.026Z,15.93
2019-03-23T12:40:24.046Z,15.80
2019-03-23T12:42:54.028Z,14.57
2019-03-23T12:45:24.053Z,15.03
2019-03-23T12:47:53.966Z,13.60
2019-03-23T12:50:23.926Z,16.03
2019-03-23T12:52:53.994Z,16.90
2019-03-23T12:55:23.936Z,13.83
2019-03-23T12:57:54.058Z,13.40
2019-03-23T13:00:24.498Z,15.10
2019-03-23T13:02:54.563Z,16.47
2019-03-23T13:05:24.689Z,11.93
2019-03-23T13:07:54.872Z,10.37
2019-03-23T13:10:24.963Z,15.17
2019-03-23T13:12:55.032Z,14.40
2019-03-23T13:15:25.070Z,9.17
2019-03-23T13:17:55.202Z,13.07
2019-03-23T13:20:25.224Z,13.10
2019-03-23T13:22:55.441Z,13.07
2019-03-23T13:25:25.654Z,14.67
2019-03-23T13:27:55.808Z,13.20
2019-03-23T13:30:25.758Z,13.63
2019-03-23T13:32:55.961Z,16.60
2019-03-23T13:35:26.241Z,14.50
2019-03-23T13:37:56.380Z,11.53
2019-03-23T13:40:26.418Z,11.07
2019-03-23T13:42:56.634Z,14.17
2019-03-23T13:45:26.774Z,13.77
2019-03-23T13:47:56.812Z,13.93
2019-03-23T13:50:28.427Z,14.67
2019-03-23T13:52:58.635Z,9.93
2019-03-23T13:55:31.204Z,13.23
2019-03-23T13:58:12.016Z,16.07
2019-03-23T14:00:42.312Z,11.10
2019-03-23T14:03:12.767Z,12.83
2019-03-23T14:05:42.999Z,14.93
2019-03-23T14:08:13.424Z,13.17
2019-03-23T14:10:43.952Z,9.20
2019-03-23T14:13:14.634Z,9.77
2019-03-23T14:15:44.919Z,16.70
2019-03-23T14:18:17.339Z,14.30
2019-03-23T14:20:46.996Z,15.20
2019-03-23T14:23:17.265Z,11.10
2019-03-23T14:25:47.417Z,14.07
2019-03-23T14:28:17.626Z,14.63
2019-03-23T14:30:47.713Z,11.63
2019-03-23T14:33:18.045Z,8.33
2019-03-23T14:35:48.276Z,12.27
2019-03-23T14:38:18.305Z,14.40
2019-03-23T14:40:48.309Z,10.17
2019-03-23T14:43:18.242Z,10.93
2019-03-23T14:45:48.146Z,11.53
2019-03-23T14:48:18.148Z,13.20
2019-03-23T14:50:48.060Z,12.83
2019-03-23T14:53:18.231Z,13.03
2019-03-23T14:55:48.403Z,9.17
2019-03-23T14:58:18.419Z,11.53
2019-03-23T15:00:48.549Z,9.77
2019-03-23T15:03:18.691Z,10.77
2019-03-23T15:05:48.798Z,10.03
2019-03-23T15:08:21.013Z,13.17
2019-03-23T15:10:50.776Z,14.17
2019-03-23T15:13:20.884Z,12.07
2019-03-23T15:15:50.952Z,13.93
2019-03-23T15:18:20.879Z,9.97
2019-03-23T15:20:50.981Z,7.57
2019-03-23T15:23:21.008Z,11.83
2019-03-23T15:25:50.943Z,9.23
2019-03-23T15:28:21.162Z,12.03
2019-03-23T15:30:51.137Z,12.07
2019-03-23T15:33:21.350Z,15.57
2019-03-23T15:35:51.591Z,15.17
2019-03-23T15:38:22.879Z,23.83
2019-03-23T15:40:52.988Z,16.00
2019-03-23T15:43:23.001Z,14.57
2019-03-23T15:45:53.184Z,11.03
2019-03-23T15:48:23.197Z,11.83
2019-03-23T15:50:53.567Z,16.77
2019-03-23T15:53:23.947Z,14.33
2019-03-23T15:55:54.313Z,20.43
2019-03-23T15:58:24.518Z,15.73
2019-03-23T16:00:54.683Z,13.97
2019-03-23T16:03:24.828Z,17.23
2019-03-23T16:05:54.995Z,15.20
2019-03-23T16:08:25.190Z,17.63
2019-03-23T16:10:55.278Z,13.17
2019-03-23T16:13:25.436Z,15.10
2019-03-23T16:15:55.650Z,12.40
2019-03-23T16:18:25.698Z,13.67
2019-03-23T16:20:55.944Z,12.57
2019-03-23T16:23:26.381Z,12.00
2019-03-23T16:25:56.609Z,13.37
2019-03-23T16:28:26.547Z,14.80
2019-03-23T16:30:56.671Z,13.33
2019-03-23T16:33:26.898Z,13.13
2019-03-23T16:35:56.923Z,12.73
2019-03-23T16:38:26.921Z,12.33
2019-03-23T16:40:56.939Z,12.77
2019-03-23T16:43:27.215Z,17.00
2019-03-23T16:45:57.170Z,14.00
2019-03-23T16:48:27.584Z,14.80
2019-03-23T16:50:57.765Z,12.47
2019-03-23T16:53:27.732Z,17.20
2019-03-23T16:55:57.729Z,10.67
2019-03-23T16:58:27.908Z,12.57
2019-03-23T17:00:57.995Z,9.33
2019-03-23T17:03:29.780Z,14.37
2019-03-23T17:06:00.090Z,14.67
2019-03-23T17:08:30.432Z,10.47
2019-03-23T17:11:00.554Z,14.70
2019-03-23T17:13:31.140Z,14.17
2019-03-23T17:16:01.497Z,14.93
2019-03-23T17:18:32.022Z,14.20
2019-03-23T17:21:02.369Z,13.83
2019-03-23T17:23:32.413Z,14.27
2019-03-23T17:26:02.451Z,16.80
2019-03-23T17:28:32.591Z,15.20
2019-03-23T17:31:03.557Z,22.23
2019-03-23T17:33:33.911Z,18.23
2019-03-23T17:36:04.187Z,17.33
2019-03-23T17:38:34.419Z,18.40
2019-03-23T17:41:05.034Z,20.13
2019-03-23T17:43:35.485Z,21.20
2019-03-23T17:46:05.956Z,20.70
2019-03-23T17:48:36.037Z,20.63
2019-03-23T17:51:07.078Z,15.03
2019-03-23T17:53:37.657Z,16.00
2019-03-23T17:56:08.027Z,17.40
2019-03-23T17:58:37.898Z,21.33
2019-03-23T18:01:15.376Z,16.07
2019-03-23T18:03:40.014Z,14.80
2019-03-23T18:06:10.046Z,12.00
2019-03-23T18:08:40.531Z,15.77
2019-03-23T18:11:10.935Z,17.87
2019-03-23T18:13:41.213Z,17.10
2019-03-23T18:16:11.344Z,13.10
2019-03-23T18:18:41.483Z,17.17
2019-03-23T18:21:11.693Z,18.60
2019-03-23T18:23:41.802Z,21.70
2019-03-23T18:26:12.684Z,23.07
2019-03-23T18:28:42.806Z,15.23
2019-03-23T18:31:12.997Z,25.13
2019-03-23T18:33:43.210Z,24.73
2019-03-23T18:36:13.430Z,20.23
2019-03-23T18:38:43.952Z,24.07
2019-03-23T18:41:13.880Z,19.47
2019-03-23T18:43:44.095Z,32.17
2019-03-23T18:46:13.947Z,23.83
2019-03-23T18:48:44.040Z,19.13
2019-03-23T18:51:15.190Z,20.07
2019-03-23T18:53:47.026Z,25.97
2019-03-23T18:56:17.136Z,15.30
2019-03-23T18:58:47.174Z,15.63
2019-03-23T19:01:17.344Z,17.00
2019-03-23T19:03:47.502Z,16.27
2019-03-23T19:06:17.415Z,19.03
2019-03-23T19:08:47.431Z,12.20
2019-03-23T19:11:17.520Z,16.33
2019-03-23T19:13:47.698Z,16.40
2019-03-23T19:16:17.840Z,28.00
2019-03-23T19:18:49.298Z,19.47
2019-03-23T19:21:19.480Z,19.47
2019-03-23T19:23:49.501Z,18.67
2019-03-23T19:26:19.450Z,17.43
2019-03-23T19:28:49.418Z,23.83
2019-03-23T19:31:19.481Z,17.43
2019-03-23T19:33:49.563Z,25.67
2019-03-23T19:36:19.891Z,23.13
2019-03-23T19:38:50.218Z,23.50
2019-03-23T19:41:20.611Z,17.43
2019-03-23T19:43:51.932Z,20.90
2019-03-23T19:46:22.221Z,20.33
2019-03-23T19:48:52.286Z,17.80
2019-03-23T19:51:22.309Z,17.10
2019-03-23T19:53:52.365Z,26.40
2019-03-23T19:56:22.633Z,16.20
2019-03-23T19:58:52.704Z,21.60
2019-03-23T20:01:22.875Z,20.97
2019-03-23T20:03:53.149Z,19.87
2019-03-23T20:06:23.498Z,17.87
2019-03-23T20:08:53.608Z,17.13
2019-03-23T20:11:24.906Z,23.17
2019-03-23T20:13:58.920Z,22.53
2019-03-23T20:16:27.103Z,22.17
2019-03-23T20:18:57.271Z,21.10
2019-03-23T20:21:27.745Z,27.87
2019-03-23T20:23:58.101Z,30.80
2019-03-23T20:26:28.464Z,23.00
2019-03-23T20:28:58.668Z,22.53
2019-03-23T20:31:28.986Z,28.17
2019-03-23T20:33:59.427Z,28.30
2019-03-23T20:36:29.540Z,26.27
2019-03-23T20:39:00.031Z,24.87
2019-03-23T20:41:30.360Z,28.40
2019-03-23T20:44:09.125Z,21.43
2019-03-23T20:46:32.699Z,20.40
2019-03-23T20:49:03.083Z,24.57
2019-03-23T20:51:33.241Z,21.63
2019-03-23T20:54:03.968Z,25.00
2019-03-23T20:56:34.013Z,30.27
2019-03-23T20:59:04.561Z,25.27
2019-03-23T21:01:34.526Z,26.17
2019-03-23T21:04:04.797Z,21.77
2019-03-23T21:06:34.923Z,23.50
2019-03-23T21:09:07.247Z,26.37
2019-03-23T21:11:37.332Z,25.47
2019-03-23T21:14:07.546Z,27.10
2019-03-23T21:16:38.120Z,26.80
2019-03-23T21:19:08.659Z,22.97
2019-03-23T21:21:38.972Z,28.20
2019-03-23T21:24:09.595Z,22.90
2019-03-23T21:26:39.676Z,21.53
2019-03-23T21:29:09.835Z,27.37
2019-03-23T21:31:39.875Z,33.00
2019-03-23T21:34:09.941Z,26.27
2019-03-23T21:36:40.421Z,24.20
2019-03-23T21:39:10.449Z,27.97
2019-03-23T21:41:40.535Z,27.87
2019-03-23T21:44:10.889Z,26.77
2019-03-23T21:46:41.368Z,27.23
2019-03-23T21:49:11.553Z,32.80
2019-03-23T21:51:41.793Z,34.20
2019-03-23T21:54:12.031Z,30.00
2019-03-23T21:56:42.183Z,26.53
2019-03-23T21:59:12.093Z,27.57
2019-03-23T22:01:42.243Z,32.67
2019-03-23T22:04:12.480Z,26.23
2019-03-23T22:06:42.551Z,24.23
2019-03-23T22:09:12.581Z,29.83
2019-03-23T22:11:42.843Z,22.87
2019-03-23T22:14:12.940Z,27.33
2019-03-23T22:16:43.036Z,30.80
2019-03-23T22:19:13.098Z,28.20
2019-03-23T22:21:43.204Z,28.67
2019-03-23T22:24:13.303Z,31.57
2019-03-23T22:26:43.427Z,31.87
2019-03-23T22:29:13.540Z,38.20
2019-03-23T22:31:43.455Z,29.90
2019-03-23T22:34:13.651Z,31.73
2019-03-23T22:36:43.773Z,29.93
2019-03-23T22:39:13.877Z,32.13
2019-03-23T22:41:44.096Z,32.37
2019-03-23T22:44:14.279Z,34.23
2019-03-23T22:46:44.366Z,31.30
2019-03-23T22:49:14.435Z,39.70
2019-03-23T22:51:44.859Z,33.53
2019-03-23T22:54:14.918Z,29.67
2019-03-23T22:56:44.955Z,26.73
2019-03-23T22:59:15.511Z,28.57
2019-03-23T23:01:46.254Z,28.60
2019-03-23T23:04:16.299Z,30.70
2019-03-23T23:06:46.287Z,35.60
2019-03-23T23:09:16.369Z,33.47
2019-03-23T23:11:46.358Z,28.03
2019-03-23T23:14:16.354Z,45.57
2019-03-23T23:16:46.318Z,29.13
2019-03-23T23:19:16.336Z,39.57
2019-03-23T23:21:46.333Z,30.77
2019-03-23T23:24:16.404Z,26.30
2019-03-23T23:26:46.420Z,39.57
2019-03-23T23:29:16.462Z,35.67
2019-03-23T23:31:46.703Z,32.33
2019-03-23T23:34:16.771Z,29.57
2019-03-23T23:36:46.887Z,32.10
2019-03-23T23:39:16.922Z,32.93
2019-03-23T23:41:46.879Z,33.60
2019-03-23T23:44:16.789Z,31.27
2019-03-23T23:46:46.992Z,29.00
2019-03-23T23:49:17.101Z,28.57
2019-03-23T23:51:50.383Z,32.07
2019-03-23T23:54:20.519Z,34.37
2019-03-23T23:56:50.706Z,29.47
2019-03-23T23:59:20.963Z,25.77
